Time;durP1;ratioP1;P1;durP2;ratioP2;P2;SDS_P1;SDS_P2;PMS_P1;PMS_P2;Temp;Humidity;BMP_temperature;BMP_pressure;BME280_temperature;BME280_humidity;BME280_pressure;Samples;Min_cycle;Max_cycle;Signal;HPM_P1;HPM_P2
2022/12/30 00:00:19;;;;;;;28.80;18.05;;;;;;;8.70;83.57;101268.06;4937862;29;20052;-76
2022/12/30 00:03:04;;;;;;;26.27;16.55;;;;;;;8.76;83.57;101260.69;4934779;29;20052;-76
2022/12/30 00:05:48;;;;;;;31.13;19.80;;;;;;;8.85;83.20;101261.66;4934227;29;20054;-77
2022/12/30 00:08:45;;;;;;;25.48;13.98;;;;;;;8.79;83.40;101257.38;4928119;29;20047;-76
2022/12/30 00:11:32;;;;;;;26.63;16.05;;;;;;;8.70;82.87;101249.09;4935771;29;20048;-76
2022/12/30 00:35:58;;;;;;;21.23;13.48;;;;;;;8.39;83.75;101261.38;4914929;29;20067;-77
2022/12/30 00:38:43;;;;;;;17.63;10.68;;;;;;;8.35;83.84;101266.56;4915291;29;20044;-76
2022/12/30 00:44:30;;;;;;;15.75;10.75;;;;;;;8.31;82.01;101264.72;4934002;29;20051;-76
2022/12/30 00:47:15;;;;;;;12.50;7.60;;;;;;;8.09;82.92;101268.69;4935699;29;20050;-76
2022/12/30 00:56:12;;;;;;;;;;;;;;;8.27;80.96;101247.38;4937731;29;20047;-76
2022/12/30 00:58:56;;;;;;;;;;;;;;;8.29;82.00;101256.81;4937701;29;19914;-76
2022/12/30 01:01:41;;;;;;;;;;;;;;;8.33;80.88;101252.47;4936846;29;19914;-76
2022/12/30 01:04:25;;;;;;;;;;;;;;;8.25;80.71;101246.84;4937479;29;20393;-76
2022/12/30 01:07:10;;;;;;;;;;;;;;;8.30;81.27;101247.66;4937354;29;19915;-76
2022/12/30 01:09:54;;;;;;;;;;;;;;;8.39;80.54;101242.41;4937509;29;20304;-76
2022/12/30 01:12:39;;;;;;;;;;;;;;;8.35;80.62;101230.53;4939261;28;20311;-77
2022/12/30 01:15:23;;;;;;;;;;;;;;;8.32;80.55;101229.22;4937473;29;19914;-77
2022/12/30 01:18:08;;;;;;;;;;;;;;;8.26;80.85;101235.75;4936792;29;20380;-78
2022/12/30 01:20:52;;;;;;;;;;;;;;;8.31;80.45;101233.00;4939326;29;19914;-75
2022/12/30 01:23:37;;;;;;;;;;;;;;;8.32;81.00;101234.63;4941781;29;19914;-76
2022/12/30 01:26:21;;;;;;;;;;;;;;;8.34;81.80;101237.03;4937116;29;19915;-76
2022/12/30 01:29:06;;;;;;;;;;;;;;;8.48;81.19;101232.56;4937361;29;19914;-76
2022/12/30 01:31:53;;;;;;;;;;;;;;;8.47;80.58;101229.03;4937579;29;19918;-77
2022/12/30 01:34:38;;;;;;;;;;;;;;;8.48;80.29;101222.50;4936952;29;20372;-76
2022/12/30 01:37:23;;;;;;;;;;;;;;;8.38;80.07;101211.78;4936787;29;19915;-75
2022/12/30 01:40:08;;;;;;;;;;;;;;;8.36;80.54;101211.28;4937545;29;19915;-77
2022/12/30 01:42:52;;;;;;;;;;;;;;;8.32;80.56;101206.72;4937212;29;19915;-78
2022/12/30 01:45:37;;;;;;;;;;;;;;;8.36;80.38;101207.75;4938059;29;19914;-79
2022/12/30 01:48:25;;;;;;;;;;;;;;;8.34;80.85;101210.75;4939498;29;19914;-76
2022/12/30 01:51:13;;;;;;;;;;;;;;;8.50;80.73;101209.47;4938129;29;19919;-79
2022/12/30 01:53:59;;;;;;;;;;;;;;;8.47;80.82;101209.25;4944522;28;19914;-76
2022/12/30 01:56:43;;;;;;;;;;;;;;;8.51;80.41;101219.22;4937632;29;20368;-76
2022/12/30 01:59:27;;;;;;;;;;;;;;;8.49;80.36;101223.31;4936199;29;19914;-77
2022/12/30 02:02:11;;;;;;;;;;;;;;;8.52;80.15;101222.75;4936756;29;19932;-79
2022/12/30 02:04:56;;;;;;;;;;;;;;;8.47;80.77;101218.19;4937154;29;19914;-77
2022/12/30 02:07:55;;;;;;;;;;;;;;;8.54;80.50;101221.34;4935954;29;19914;-78
2022/12/30 02:10:42;;;;;;;;;;;;;;;8.52;80.12;101215.44;4936665;29;19914;-77
2022/12/30 02:13:26;;;;;;;;;;;;;;;8.36;80.70;101216.69;4937765;29;20388;-78
2022/12/30 02:16:14;;;;;;;;;;;;;;;8.62;80.84;101210.97;4931555;29;19919;-78
2022/12/30 02:19:17;;;;;;;;;;;;;;;8.63;80.42;101208.00;4938092;29;20376;-76
2022/12/30 02:22:02;;;;;;;;;;;;;;;8.60;79.88;101203.13;4937580;29;19915;-78
2022/12/30 02:24:46;;;;;;;;;;;;;;;8.50;80.42;101209.47;4937090;29;19915;-78
2022/12/30 02:27:42;;;;;;;;;;;;;;;8.56;80.05;101202.91;4937165;29;19914;-76
2022/12/30 02:30:33;;;;;;;;;;;;;;;8.65;79.33;101208.50;4935748;29;19914;-76
2022/12/30 02:33:23;;;;;;;;;;;;;;;8.61;79.92;101203.94;4941472;29;19915;-76
2022/12/30 02:36:16;;;;;;;;;;;;;;;8.50;80.39;101201.34;4940142;29;20305;-76
2022/12/30 02:39:11;;;;;;;;;;;;;;;8.56;80.61;101212.94;4935710;29;19919;-76
2022/12/30 02:45:18;;;;;;;;;;;;;;;8.61;79.14;101202.03;4940083;29;19918;-76
2022/12/30 02:48:09;;;;;;;;;;;;;;;8.55;79.68;101209.41;4935577;29;19914;-77
2022/12/30 02:53:58;;;;;;;;;;;;;;;8.45;81.59;101214.16;4935487;29;19914;-75
2022/12/30 02:56:47;;;;;;;;;;;;;;;8.32;82.03;101215.66;4935172;29;19916;-78
2022/12/30 03:06:05;;;;;;;;;;;;;;;8.46;81.98;101203.03;4935011;29;19915;-76
2022/12/30 03:08:56;;;;;;;;;;;;;;;8.20;83.49;101212.50;4938257;29;19915;-76
2022/12/30 03:11:51;;;;;;;;;;;;;;;8.38;83.26;101206.34;4934753;29;19919;-75
2022/12/30 03:14:36;;;;;;;;;;;;;;;8.56;82.41;101202.09;4935273;29;19915;-76
2022/12/30 03:17:22;;;;;;;;;;;;;;;8.44;82.56;101212.53;4936453;29;19915;-76
2022/12/30 03:20:09;;;;;;;;;;;;;;;8.24;82.87;101208.13;4935151;29;19915;-76
2022/12/30 03:29:02;;;;;;;;;;;;;;;8.29;83.20;101197.22;4928009;29;19914;-76
2022/12/30 03:31:47;;;;;;;;;;;;;;;8.15;84.01;101199.81;4934820;29;19919;-76
2022/12/30 03:34:32;;;;;;;;;;;;;;;8.02;85.16;101197.81;4934963;29;19914;-77
2022/12/30 03:37:36;;;;;;;;;;;;;;;7.87;86.07;101200.66;4934820;29;19918;-77
2022/12/30 03:40:38;;;;;;;;;;;;;;;7.87;86.51;101199.84;4933874;29;19915;-76
2022/12/30 03:43:24;;;;;;;;;;;;;;;7.82;87.68;101192.59;4934929;29;19919;-76
2022/12/30 03:46:08;;;;;;;;;;;;;;;7.76;87.83;101198.31;4934816;29;19914;-77
2022/12/30 03:48:53;;;;;;;;;;;;;;;7.65;88.10;101193.00;4934969;29;19915;-76
2022/12/30 03:51:37;;;;;;;;;;;;;;;7.77;88.21;101205.34;4934563;29;19918;-76
2022/12/30 03:54:22;;;;;;;;;;;;;;;7.98;87.44;101196.72;4934993;29;19915;-77
2022/12/30 03:57:07;;;;;;;;;;;;;;;7.85;87.77;101189.28;4935048;29;20300;-76
2022/12/30 03:59:52;;;;;;;;;;;;;;;8.08;87.37;101182.28;4933608;29;19915;-76
2022/12/30 04:02:38;;;;;;;;;;;;;;;8.24;85.82;101170.19;4934727;29;19915;-77
2022/12/30 04:05:22;;;;;;;;;;;;;;;8.19;85.38;101175.66;4936241;29;19914;-77
2022/12/30 04:08:07;;;;;;;;;;;;;;;8.25;85.05;101169.09;4934139;29;20315;-77
2022/12/30 04:10:51;;;;;;;;;;;;;;;8.38;84.61;101173.84;4927600;29;19915;-76
2022/12/30 04:13:36;;;;;;;;;;;;;;;8.38;84.67;101168.41;4936501;29;19918;-77
2022/12/30 04:16:20;;;;;;;;;;;;;;;8.45;84.81;101163.47;4935505;29;19915;-75
2022/12/30 04:19:05;;;;;;;;;;;;;;;8.43;84.80;101168.38;4932107;29;19915;-76
2022/12/30 04:21:49;;;;;;;;;;;;;;;8.39;84.45;101180.88;4929763;29;19915;-75
2022/12/30 04:24:35;;;;;;;;;;;;;;;8.44;84.51;101178.09;4935538;29;19915;-76
2022/12/30 04:27:20;;;;;;;;;;;;;;;8.52;84.00;101173.97;4922319;29;20308;-76
2022/12/30 04:30:05;;;;;;;;;;;;;;;8.46;83.80;101169.69;4927379;29;20384;-75
2022/12/30 04:32:49;;;;;;;;;;;;;;;8.45;83.86;101168.88;4918723;29;19919;-75
2022/12/30 04:35:34;;;;;;;;;;;;;;;8.55;84.13;101174.19;4940345;29;19914;-76
2022/12/30 04:38:18;;;;;;;;;;;;;;;8.58;83.57;101179.00;4936938;29;19915;-76
2022/12/30 04:41:02;;;;;;;;;;;;;;;8.52;83.74;101166.66;4937257;29;19914;-76
2022/12/30 04:43:47;;;;;;;;;;;;;;;8.62;83.61;101176.56;4937812;29;19914;-76
2022/12/30 04:46:32;;;;;;;;;;;;;;;8.64;83.42;101181.66;4938133;29;19915;-76
2022/12/30 04:49:16;;;;;;;;;;;;;;;8.69;83.33;101185.13;4938060;29;19914;-75
2022/12/30 04:52:01;;;;;;;;;;;;;;;8.67;83.16;101184.63;4937157;29;19918;-75
2022/12/30 04:54:45;;;;;;;;;;;;;;;8.61;83.10;101174.94;4937799;29;19915;-77
2022/12/30 04:57:29;;;;;;;;;;;;;;;8.63;82.49;101185.50;4937845;29;19915;-76
2022/12/30 05:00:14;;;;;;;;;;;;;;;8.66;82.61;101187.63;4937674;29;19915;-74
2022/12/30 05:02:58;;;;;;;;;;;;;;;8.62;83.12;101195.53;4930362;29;19915;-76
2022/12/30 05:05:43;;;;;;;;;;;;;;;8.71;82.78;101196.50;4939689;29;19915;-77
2022/12/30 05:08:27;;;;;;;;;;;;;;;8.42;83.11;101204.72;4939469;29;19915;-77
2022/12/30 05:11:11;;;;;;;;;;;;;;;8.59;83.89;101194.19;4939694;29;19914;-77
2022/12/30 05:13:56;;;;;;;;;;;;;;;8.60;83.06;101192.28;4938969;29;19914;-75
2022/12/30 05:16:40;;;;;;;;;;;;;;;8.55;83.08;101211.31;4943162;29;19914;-79
2022/12/30 05:19:24;;;;;;;;;;;;;;;8.36;83.57;101208.56;4938631;29;19915;-77
2022/12/30 05:22:09;;;;;;;;;;;;;;;8.38;84.08;101205.59;4939946;29;19915;-77
2022/12/30 05:27:57;;;;;;;;;;;;;;;8.43;82.15;101214.44;4933456;29;19918;-76
2022/12/30 05:30:41;;;;;;;;;;;;;;;8.32;82.59;101215.66;4930109;29;20409;-76
2022/12/30 05:33:26;;;;;;;;;;;;;;;8.07;83.29;101221.31;4937789;29;19918;-77
2022/12/30 05:36:11;;;;;;;;;;;;;;;8.06;83.19;101219.69;4948431;28;19915;-77
2022/12/30 05:38:55;;;;;;;;;;;;;;;8.21;83.08;101210.59;4933022;29;19919;-78
2022/12/30 05:41:40;;;;;;;;;;;;;;;8.32;82.42;101212.94;4937025;29;19914;-78
2022/12/30 05:44:25;;;;;;;;;;;;;;;8.28;82.49;101211.84;4932516;29;19915;-77
2022/12/30 05:47:10;;;;;;;;;;;;;;;8.32;83.11;101218.38;4937155;29;19914;-77
2022/12/30 05:49:54;;;;;;;;;;;;;;;8.33;82.37;101214.53;4930025;29;19927;-77
2022/12/30 05:52:39;;;;;;;;;;;;;;;8.29;82.57;101208.06;4935037;29;19927;-77
2022/12/30 05:55:23;;;;;;;;;;;;;;;8.25;82.62;101201.59;4932085;29;19914;-75
2022/12/30 05:58:08;;;;;;;;;;;;;;;8.23;82.85;101195.66;4936232;29;19915;-76
2022/12/30 06:00:53;;;;;;;;;;;;;;;8.24;82.53;101201.88;4935770;29;19915;-76
2022/12/30 06:03:37;;;;;;;;;;;;;;;8.28;82.13;101217.28;4935527;29;19919;-74
2022/12/30 06:06:21;;;;;;;;;;;;;;;8.36;82.11;101230.25;4936056;29;19918;-75
2022/12/30 06:09:08;;;;;;;;;;;;;;;8.31;81.43;101229.50;4938065;29;19919;-76
2022/12/30 06:11:52;;;;;;;;;;;;;;;8.38;82.04;101232.69;4936013;29;19918;-76
2022/12/30 06:14:36;;;;;;;;;;;;;;;8.50;81.88;101230.34;4939417;29;19918;-76
2022/12/30 06:17:21;;;;;;;;;;;;;;;8.32;82.06;101223.78;4931651;29;19915;-76
2022/12/30 06:20:05;;;;;;;;;;;;;;;8.36;81.80;101215.88;4935990;29;19914;-76
2022/12/30 06:22:50;;;;;;;;;;;;;;;8.14;83.35;101222.56;4928711;29;19914;-75
2022/12/30 06:25:35;;;;;;;;;;;;;;;8.11;83.72;101230.47;4934667;29;19915;-74
2022/12/30 06:28:20;;;;;;;;;;;;;;;8.10;84.48;101234.28;4933490;29;19915;-75
2022/12/30 06:31:04;;;;;;;;;;;;;;;8.19;84.59;101235.25;4933777;29;19919;-76
2022/12/30 06:33:49;;;;;;;;;;;;;;;8.09;83.71;101235.38;4931966;29;20295;-76
2022/12/30 06:36:33;;;;;;;;;;;;;;;8.00;84.02;101237.06;4934959;29;20009;-75
2022/12/30 06:39:18;;;;;;;;;;;;;;;8.18;84.09;101248.00;4935324;29;19922;-75
2022/12/30 06:42:02;;;;;;;;;;;;;;;8.21;83.55;101249.34;4936046;29;19915;-75
2022/12/30 06:44:46;;;;;;;;;;;;;;;7.93;84.77;101258.25;4933975;29;19934;-74
2022/12/30 06:47:31;;;;;;;;;;;;;;;8.03;84.74;101263.56;4931569;29;19918;-76
2022/12/30 06:50:15;;;;;;;;;;;;;;;7.91;84.88;101269.38;4934671;29;19919;-76
2022/12/30 06:53:00;;;;;;;;;;;;;;;7.91;86.56;101274.00;4934711;29;20460;-76
2022/12/30 06:55:44;;;;;;;;;;;;;;;8.07;86.08;101278.19;4935455;29;19914;-74
2022/12/30 06:58:29;;;;;;;;;;;;;;;8.17;85.71;101283.53;4939062;29;19915;-75
2022/12/30 07:01:14;;;;;;;;;;;;;;;8.25;85.36;101271.25;4935126;29;19915;-76
2022/12/30 07:03:58;;;;;;;;;;;;;;;8.39;85.95;101274.91;4935184;29;20296;-76
2022/12/30 07:06:42;;;;;;;;;;;;;;;8.29;84.84;101275.78;4938732;29;19914;-76
2022/12/30 07:09:27;;;;;;;;;;;;;;;8.21;85.25;101281.84;4927934;29;20381;-75
2022/12/30 07:12:13;;;;;;;;;;;;;;;8.30;85.23;101284.78;4933827;29;19935;-76
2022/12/30 07:14:57;;;;;;;;;;;;;;;8.10;85.25;101285.72;4934196;29;19915;-77
2022/12/30 07:17:42;;;;;;;;;;;;;;;7.74;87.72;101287.91;4934593;29;20323;-77
2022/12/30 07:20:26;;;;;;;;;;;;;;;7.48;89.60;101300.81;4927226;29;20384;-76
2022/12/30 07:23:10;;;;;;;;;;;;;;;7.59;90.62;101309.69;4934602;28;19915;-78
2022/12/30 07:25:55;;;;;;;;;;;;;;;7.37;91.03;101317.38;4933173;29;20308;-76
2022/12/30 07:28:39;;;;;;;;;;;;;;;7.44;91.74;101318.69;4934063;29;20392;-76
2022/12/30 07:31:24;;;;;;;;;;;;;;;7.44;92.02;101310.59;4934657;29;19915;-75
2022/12/30 07:34:08;;;;;;;;;;;;;;;7.46;91.73;101308.41;4937838;29;19918;-76
2022/12/30 07:36:52;;;;;;;;;;;;;;;7.39;92.22;101305.19;4918590;29;19915;-76
2022/12/30 07:39:38;;;;;;;;;;;;;;;7.72;91.55;101311.75;4919095;28;19919;-76
2022/12/30 07:42:23;;;;;;;;;;;;;;;7.87;91.21;101308.97;4933625;29;19914;-76
2022/12/30 07:45:07;;;;;;;;;;;;;;;8.18;89.16;101319.53;4935490;29;19942;-76
2022/12/30 07:47:52;;;;;;;;;;;;;;;8.18;87.58;101320.31;4935208;29;19915;-76
2022/12/30 07:50:38;;;;;;;;;;;;;;;8.13;89.49;101325.78;4937765;29;19914;-78
2022/12/30 07:53:23;;;;;;;;;;;;;;;8.32;88.49;101329.47;4933270;29;19919;-77
2022/12/30 07:56:09;;;;;;;;;;;;;;;8.14;88.05;101320.09;4929529;29;19923;-77
2022/12/30 07:58:54;;;;;;;;;;;;;;;8.35;87.34;101331.59;4938053;29;19922;-78
2022/12/30 08:01:38;;;;;;;;;;;;;;;8.69;86.36;101319.88;4936762;29;19915;-77
2022/12/30 08:04:23;;;;;;;;;;;;;;;8.67;85.51;101325.59;4935996;29;19915;-78
2022/12/30 08:07:07;;;;;;;;;;;;;;;8.74;85.20;101334.19;4935847;29;19922;-76
2022/12/30 08:09:52;;;;;;;;;;;;;;;8.44;85.65;101343.44;4937105;29;19919;-80
2022/12/30 08:12:36;;;;;;;;;;;;;;;8.14;87.83;101341.75;4932628;29;19919;-79
2022/12/30 08:15:21;;;;;;;;;;;;;;;8.09;89.17;101351.81;4932705;28;19914;-81
2022/12/30 08:18:05;;;;;;;;;;;;;;;8.14;89.20;101349.06;4937964;29;19914;-80
2022/12/30 08:20:49;;;;;;;;;;;;;;;8.14;88.45;101351.78;4937952;29;20300;-82
2022/12/30 08:23:34;;;;;;;;;;;;;;;8.29;88.34;101359.78;4939376;29;19914;-77
2022/12/30 08:26:20;;;;;;;;;;;;;;;8.30;88.84;101366.88;4931000;29;19914;-77
2022/12/30 08:29:04;;;;;;;;;;;;;;;8.64;87.51;101355.16;4947878;28;19918;-79
2022/12/30 08:31:49;;;;;;;;;;;;;;;8.69;86.14;101363.25;4930562;29;19918;-80
2022/12/30 08:34:34;;;;;;;;;;;;;;;8.18;87.98;101373.72;4940855;29;19915;-79
2022/12/30 08:37:18;;;;;;;;;;;;;;;8.29;88.56;101378.75;4934665;29;19915;-77
2022/12/30 08:40:03;;;;;;;;;;;;;;;8.18;89.74;101385.34;4937853;29;19914;-76
2022/12/30 08:42:48;;;;;;;;;;;;;;;8.06;89.67;101395.75;4933554;29;19914;-75
2022/12/30 08:45:32;;;;;;;;;;;;;;;7.87;91.16;101411.03;4937424;29;19915;-77
2022/12/30 08:48:17;;;;;;;;;;;;;;;7.72;92.58;101410.00;4937363;29;19915;-75
2022/12/30 08:51:01;;;;;;;;;;;;;;;7.84;92.91;101420.50;4940700;29;19914;-75
2022/12/30 08:53:46;;;;;;;;;;;;;;;7.68;92.79;101427.91;4939030;29;19918;-74
2022/12/30 08:56:34;;;;;;;;;;;;;;;7.88;93.22;101418.03;4930501;29;19915;-76
2022/12/30 08:59:19;;;;;;;;;;;;;;;7.78;93.49;101429.75;4940796;29;19914;-75
2022/12/30 09:02:03;;;;;;;;;;;;;;;7.78;93.55;101437.06;4925382;29;20308;-75
2022/12/30 09:04:48;;;;;;;;;;;;;;;7.93;93.10;101435.06;4924294;29;20398;-75
2022/12/30 09:07:33;;;;;;;;;;;;;;;7.79;93.06;101444.91;4932493;29;20384;-77
2022/12/30 09:10:17;;;;;;;;;;;;;;;7.80;93.69;101440.31;4933835;29;20304;-76
2022/12/30 09:13:01;;;;;;;;;;;;;;;7.79;94.00;101441.38;4932278;29;19918;-77
2022/12/30 09:15:46;;;;;;;;;;;;;;;7.88;93.84;101450.53;4936384;29;20377;-76
2022/12/30 09:18:30;;;;;;;;;;;;;;;8.11;92.81;101449.88;4937100;29;19915;-76
2022/12/30 09:21:15;;;;;;;;;;;;;;;8.22;91.48;101456.03;4932687;29;19919;-78
2022/12/30 09:23:59;;;;;;;;;;;;;;;8.31;90.77;101448.97;4937538;29;19915;-76
2022/12/30 09:26:44;;;;;;;;;;;;;;;8.63;89.98;101443.03;4939727;29;19915;-77
2022/12/30 09:29:28;;;;;;;;;;;;;;;8.52;89.09;101448.53;4920709;29;19919;-78
2022/12/30 09:32:12;;;;;;;;;;;;;;;8.56;89.06;101462.31;4930758;29;19915;-76
2022/12/30 09:34:57;;;;;;;;;;;;;;;8.65;88.06;101460.63;4937377;29;19914;-78
2022/12/30 09:37:41;;;;;;;;;;;;;;;8.82;88.11;101450.16;4936303;29;19915;-75
2022/12/30 09:40:45;;;;;;;;;;;;;;;8.99;87.02;101452.44;4934343;29;19914;-77
2022/12/30 09:43:38;;;;;;;;;;;;;;;9.12;86.13;101454.50;4932510;29;19915;-78
2022/12/30 09:46:22;;;;;;;;;;;;;;;9.14;85.92;101446.88;4929861;29;19915;-77
2022/12/30 09:49:16;;;;;;;;;;;;;;;9.20;85.71;101445.72;4943684;28;19914;-78
2022/12/30 09:52:05;;;;;;;;;;;;;;;9.18;85.05;101438.97;4939598;29;20299;-77
2022/12/30 09:55:02;;;;;;;;;;;;;;;9.20;84.60;101439.47;4936566;29;19914;-81
2022/12/30 09:57:49;;;;;;;;;;;;;;;9.21;85.07;101441.91;4936906;29;19915;-75
2022/12/30 10:00:35;;;;;;;;;;;;;;;9.04;85.83;101440.75;4936283;29;19914;-76
2022/12/30 10:03:20;;;;;;;;;;;;;;;9.02;86.17;101431.00;4932835;29;19919;-77
2022/12/30 10:06:23;;;;;;;;;;;;;;;9.17;85.32;101432.72;4933981;29;19915;-77
2022/12/30 10:09:21;;;;;;;;;;;;;;;8.83;86.31;101440.13;4929842;29;19918;-77
2022/12/30 10:12:18;;;;;;;;;;;;;;;8.80;87.16;101436.06;4952865;28;19915;-77
2022/12/30 10:15:13;;;;;;;;;;;;;;;8.89;87.20;101428.94;4925285;29;19922;-77
2022/12/30 10:17:58;;;;;;;;;;;;;;;9.10;85.45;101426.81;4927456;29;19919;-76
2022/12/30 10:20:46;;;;;;;;;;;;;;;8.99;85.58;101434.25;4938348;28;19915;-76
2022/12/30 10:23:48;;;;;;;;;;;;;;;8.84;86.25;101430.88;4922414;29;20299;-77
2022/12/30 10:26:53;;;;;;;;;;;;;;;9.10;84.95;101423.31;4929964;29;19918;-76
2022/12/30 10:29:40;;;;;;;;;;;;;;;9.10;84.93;101415.97;4934887;29;20295;-76
2022/12/30 10:32:28;;;;;;;;;;;;;;;9.21;84.84;101413.97;4948365;28;20396;-76
2022/12/30 10:35:23;;;;;;;;;;;;;;;9.10;84.74;101417.88;4936202;29;20292;-77
2022/12/30 10:38:12;;;;;;;;;;;;;;;9.28;84.41;101414.44;4935662;29;19914;-76
2022/12/30 10:41:15;;;;;;;;;;;;;;;9.67;82.50;101404.16;4932405;29;20294;-76
2022/12/30 10:44:03;;;;;;;;;;;;;;;9.95;80.75;101401.59;4931492;29;19915;-78
2022/12/30 10:46:58;;;;;;;;;;;;;;;9.67;81.46;101416.91;4936017;29;19915;-75
2022/12/30 10:49:59;;;;;;;;;;;;;;;9.32;83.56;101418.97;4928334;29;20329;-75
2022/12/30 10:52:45;;;;;;;;;;;;;;;8.84;84.99;101422.75;4918593;29;19919;-79
2022/12/30 10:55:31;;;;;;;;;;;;;;;8.76;86.29;101416.06;4937666;29;19914;-80
2022/12/30 10:58:22;;;;;;;;;;;;;;;8.76;87.48;101417.97;4937626;29;19915;-81
2022/12/30 11:01:11;;;;;;;;;;;;;;;8.94;87.15;101425.34;4937366;29;19914;-78
2022/12/30 11:03:58;;;;;;;;;;;;;;;9.14;85.59;101408.09;4940570;29;20296;-79
2022/12/30 11:06:57;;;;;;;;;;;;;;;9.62;83.88;101406.13;4932392;29;19915;-78
2022/12/30 11:09:43;;;;;;;;;;;;;;;9.42;83.34;101410.72;4925777;29;19915;-77
2022/12/30 11:15:48;;;;;;;;;;;;;;;9.15;85.73;101402.34;4933128;29;19914;-78
2022/12/30 11:18:33;;;;;;;;;;;;;;;9.47;84.49;101398.19;4935474;29;19922;-79
2022/12/30 11:21:43;;;;;;;;;;;;;;;9.72;83.35;101386.97;4935160;29;19915;-78
2022/12/30 11:24:28;;;;;;;;;;;;;;;9.63;82.16;101402.31;4933380;29;19915;-77
2022/12/30 11:27:13;;;;;;;;;;;;;;;9.97;81.75;101394.75;4930838;29;19914;-78
2022/12/30 11:29:57;;;;;;;;;;;;;;;10.40;79.18;101395.50;4933996;29;19914;-77
2022/12/30 11:32:45;;;;;;;;;;;;;;;10.13;79.59;101404.31;4926740;29;19919;-79
2022/12/30 11:35:31;;;;;;;;;;;;;;;10.02;81.07;101405.56;4935114;29;19914;-77
2022/12/30 11:38:34;;;;;;;;;;;;;;;10.02;81.05;101410.19;4931692;29;19919;-78
2022/12/30 11:41:19;;;;;;;;;;;;;;;9.85;81.62;101413.44;4939740;29;19915;-78
2022/12/30 11:44:03;;;;;;;;;;;;;;;9.85;81.21;101403.34;4916486;29;19915;-77
2022/12/30 11:46:50;;;;;;;;;;;;;;;9.97;80.60;101400.19;4916065;29;19915;-80
2022/12/30 11:49:46;;;;;;;;;;;;;;;9.86;80.47;101401.44;4928186;29;19919;-80
2022/12/30 11:52:30;;;;;;;;;;;;;;;9.59;82.49;101399.38;4925373;29;20384;-79
2022/12/30 11:55:21;;;;;;;;;;;;;;;9.58;83.05;101394.25;4970023;23;19930;-78
2022/12/30 11:58:11;;;;;;;;;;;;;;;10.00;81.42;101388.75;4953364;28;19919;-78
2022/12/30 12:01:04;;;;;;;;;;;;;;;9.97;81.12;101392.06;4959527;28;19914;-78
2022/12/30 12:03:50;;;;;;;;;;;;;;;9.59;82.74;101398.56;4965492;28;19922;-79
2022/12/30 12:06:49;;;;;;;;;;;;;;;9.17;85.00;101402.88;4949261;29;19914;-78
2022/12/30 12:09:42;;;;;;;;;;;;;;;9.32;85.86;101393.75;4939646;29;19915;-78
2022/12/30 12:12:30;;;;;;;;;;;;;;;9.62;83.29;101387.13;4943226;29;19914;-78
2022/12/30 12:15:19;;;;;;;;;;;;;;;9.68;82.73;101381.34;4953448;29;19915;-78
2022/12/30 12:18:10;;;;;;;;;;;;;;;9.84;82.41;101376.50;4948823;29;20376;-78
2022/12/30 12:20:55;;;;;;;;;;;;;;;10.02;81.07;101364.81;4953679;29;19914;-79
2022/12/30 12:23:58;;;;;;;;;;;;;;;10.04;80.93;101367.22;4956990;29;19914;-79
2022/12/30 12:26:56;;;;;;;;;;;;;;;10.18;80.05;101374.38;4953996;29;19918;-78
2022/12/30 12:29:40;;;;;;;;;;;;;;;10.13;80.61;101379.03;4954057;28;19914;-78
2022/12/30 12:32:31;;;;;;;;;;;;;;;9.77;81.88;101379.56;4935580;29;20467;-78
2022/12/30 12:35:25;;;;;;;;;;;;;;;9.78;82.19;101372.22;4953572;29;19919;-78
2022/12/30 12:38:24;;;;;;;;;;;;;;;9.85;81.40;101372.69;4952456;29;19915;-78
2022/12/30 12:41:15;;;;;;;;;;;;;;;10.05;80.40;101379.72;4948129;29;19914;-78
2022/12/30 12:44:16;;;;;;;;;;;;;;;9.77;81.35;101381.47;4940383;28;19914;-78
2022/12/30 12:47:11;;;;;;;;;;;;;;;9.65;82.94;101381.13;4948130;28;19915;-79
2022/12/30 12:50:02;;;;;;;;;;;;;;;9.60;82.63;101383.91;4944626;29;19914;-79
2022/12/30 12:52:46;;;;;;;;;;;;;;;9.67;82.70;101373.47;4967311;28;20292;-79
2022/12/30 12:55:31;;;;;;;;;;;;;;;9.63;82.60;101364.31;4948036;29;19918;-78
2022/12/30 12:58:27;;;;;;;;;;;;;;;9.88;81.91;101372.09;4957006;29;19914;-78
2022/12/30 13:01:47;;;;;;;;;;;;;;;9.93;82.04;101361.16;4953942;28;19919;-79
2022/12/30 13:04:51;;;;;;;;;;;;;;;10.24;80.50;101361.50;4947923;28;19923;-78
2022/12/30 13:07:59;;;;;;;;;;;;;;;10.64;78.65;101360.81;4943985;29;20303;-78
2022/12/30 13:10:49;;;;;;;;;;;;;;;10.99;77.47;101353.88;4944254;28;19919;-76
2022/12/30 13:13:38;;;;;;;;;;;;;;;11.02;76.52;101355.22;4950723;29;19919;-75
2022/12/30 13:16:29;;;;;;;;;;;;;;;11.01;76.67;101339.97;4935499;29;19918;-77
2022/12/30 13:19:15;;;;;;;;;;;;;;;11.39;74.95;101338.63;4941752;29;19915;-76
2022/12/30 13:22:02;;;;;;;;;;;;;;;11.28;74.63;101350.03;4953434;28;19915;-78
2022/12/30 13:24:49;;;;;;;;;;;;;;;11.09;75.51;101352.88;4943985;29;20299;-77
2022/12/30 13:27:35;;;;;;;;;;;;;;;10.69;76.57;101362.63;4947509;29;19918;-78
2022/12/30 13:30:21;;;;;;;;;;;;;;;10.39;78.13;101366.69;4951841;29;19914;-77
2022/12/30 13:33:08;;;;;;;;;;;;;;;10.22;78.54;101375.38;4951508;29;19919;-77
2022/12/30 13:36:14;;;;;;;;;;;;;;;10.13;79.42;101377.13;4940795;29;19914;-79
2022/12/30 13:39:18;;;;;;;;;;;;;;;10.04;79.69;101378.91;4948861;28;20311;-77
2022/12/30 13:42:22;;;;;;;;;;;;;;;10.20;79.53;101388.47;4949850;29;19914;-78
2022/12/30 13:45:20;;;;;;;;;;;;;;;10.05;79.77;101375.09;4953915;28;19914;-78
2022/12/30 13:48:10;;;;;;;;;;;;;;;10.23;79.68;101362.59;4964105;28;20383;-78
2022/12/30 13:51:00;;;;;;;;;;;;;;;10.20;79.28;101353.16;4941870;29;19914;-78
2022/12/30 13:53:47;;;;;;;;;;;;;;;10.13;80.14;101355.38;4940055;29;19919;-78
2022/12/30 13:56:35;;;;;;;;;;;;;;;10.45;79.04;101356.53;4950496;29;19921;-77
2022/12/30 13:59:19;;;;;;;;;;;;;;;10.15;79.45;101350.47;4938154;29;19914;-78
2022/12/30 14:02:18;;;;;;;;;;;;;;;10.36;78.72;101352.91;4950841;28;19914;-78
2022/12/30 14:05:23;;;;;;;;;;;;;;;10.37;78.28;101354.47;4937625;29;19919;-78
2022/12/30 14:08:16;;;;;;;;;;;;;;;10.14;79.17;101362.44;4944489;29;20320;-78
2022/12/30 14:11:01;;;;;;;;;;;;;;;9.96;80.12;101359.72;4942924;29;20388;-78
2022/12/30 14:14:20;;;;;;;;;;;;;;;9.88;81.07;101367.47;4942507;29;19919;-78
2022/12/30 14:17:06;;;;;;;;;;;;;;;9.67;81.64;101368.03;4942997;29;20295;-78
2022/12/30 14:19:54;;;;;;;;;;;;;;;9.74;82.48;101377.47;4936516;29;20273;-78
2022/12/30 14:22:41;;;;;;;;;;;;;;;9.52;79.94;101376.41;4951037;29;19914;-79
2022/12/30 14:25:29;;;;;;;;;;;;;;;9.47;80.14;101380.00;4947067;29;19914;-78
2022/12/30 14:28:25;;;;;;;;;;;;;;;9.59;79.83;101377.66;4951764;29;19914;-78
2022/12/30 14:31:18;;;;;;;;;;;;;;;9.48;79.78;101375.38;4944415;28;19926;-78
2022/12/30 14:34:05;;;;;;;;;;;;;;;9.60;79.27;101381.19;4947636;29;20384;-78
2022/12/30 14:36:58;;;;;;;;;;;;;;;9.54;80.64;101391.31;4953794;28;20335;-78
2022/12/30 14:39:43;;;;;;;;;;;;;;;9.57;80.03;101385.28;4946363;29;20413;-78
2022/12/30 14:42:29;;;;;;;;;;;;;;;9.73;79.47;101383.97;4941182;29;19922;-79
2022/12/30 14:45:19;;;;;;;;;;;;;;;9.66;80.15;101388.16;4944602;29;19918;-78
2022/12/30 14:48:04;;;;;;;;;;;;;;;9.74;80.03;101388.31;4942245;29;19922;-81
2022/12/30 14:50:48;;;;;;;;;;;;;;;9.64;80.60;101391.19;4947558;29;19914;-81
2022/12/30 14:53:32;;;;;;;;;;;;;;;9.65;80.41;101383.84;4948617;28;19923;-81
2022/12/30 14:56:18;;;;;;;;;;;;;;;9.54;80.86;101375.03;4949512;29;19914;-81
2022/12/30 14:59:05;;;;;;;;;;;;;;;9.61;81.16;101374.63;4949946;29;19918;-81
2022/12/30 15:02:19;;;;;;;;;;;;;;;9.63;81.27;101367.03;4955044;29;19914;-81
2022/12/30 15:05:09;;;;;;;;;;;;;;;9.69;80.64;101368.56;4939278;29;19918;-81
2022/12/30 15:08:00;;;;;;;;;;;;;;;9.66;80.90;101369.13;4954255;28;20399;-82
2022/12/30 15:10:58;;;;;;;;;;;;;;;9.60;81.22;101383.91;4941950;29;19915;-81
2022/12/30 15:13:45;;;;;;;;;;;;;;;9.28;82.77;101396.25;4943964;29;19941;-81
2022/12/30 15:16:31;;;;;;;;;;;;;;;9.37;83.22;101405.34;4951794;28;19943;-81
2022/12/30 15:19:27;;;;;;;;;;;;;;;9.27;83.65;101397.34;4945341;29;20455;-79
2022/12/30 15:22:12;;;;;;;;;;;;;;;9.48;83.60;101397.09;4950149;28;19914;-81
2022/12/30 15:24:57;;;;;;;;;;;;;;;9.54;83.74;101395.94;4951454;28;19914;-81